Time;durP1;ratioP1;P1;durP2;ratioP2;P2;SDS_P1;SDS_P2;PMS_P1;PMS_P2;Temp;Humidity;BMP_temperature;BMP_pressure;BME280_temperature;BME280_humidity;BME280_pressure;Samples;Min_cycle;Max_cycle;Signal;HPM_P1;HPM_P2
2021/12/28 00:01:29;;;;;;;191.30;81.22;;;;;;;5.82;96.21;99422.19;4970045;28;20018;-75
2021/12/28 00:03:55;;;;;;;110.05;46.28;;;;;;;5.78;96.92;99420.53;4968312;28;20095;-75
2021/12/28 00:06:21;;;;;;;153.20;68.35;;;;;;;5.74;97.08;99409.31;4965671;28;20562;-76
2021/12/28 00:08:47;;;;;;;59.67;25.98;;;;;;;5.73;97.41;99408.47;4953792;28;20031;-75
2021/12/28 00:11:13;;;;;;;84.68;38.58;;;;;;;5.72;97.54;99408.50;4971994;28;20113;-76
2021/12/28 00:13:40;;;;;;;91.45;42.70;;;;;;;5.67;97.41;99400.75;4961686;28;20109;-75
2021/12/28 00:18:36;;;;;;;110.50;51.60;;;;;;;5.59;97.59;99410.41;4978253;28;20036;-75
2021/12/28 00:21:04;;;;;;;99.07;39.30;;;;;;;5.58;97.92;99413.03;4944606;28;20625;-75
2021/12/28 00:23:37;;;;;;;79.07;33.00;;;;;;;5.55;97.83;99414.78;4964851;28;20359;-75
2021/12/28 00:26:08;;;;;;;156.88;80.00;;;;;;;5.52;97.33;99417.44;4993691;28;20030;-74
2021/12/28 00:28:34;;;;;;;94.78;40.80;;;;;;;5.46;97.41;99404.53;4967353;28;20033;-74
2021/12/28 00:31:00;;;;;;;72.85;33.00;;;;;;;5.47;97.65;99405.38;4963090;28;20034;-76
2021/12/28 00:33:28;;;;;;;48.28;22.02;;;;;;;5.46;97.31;99401.06;4982550;28;20029;-76
2021/12/28 00:35:53;;;;;;;109.93;49.67;;;;;;;5.42;97.92;99400.25;4943401;28;20418;-76
2021/12/28 00:38:23;;;;;;;46.35;16.23;;;;;;;5.44;97.83;99395.03;4970585;28;20505;-75
2021/12/28 00:40:50;;;;;;;54.03;25.70;;;;;;;5.42;97.62;99399.41;4959964;28;20042;-75
2021/12/28 00:43:16;;;;;;;103.05;47.13;;;;;;;5.45;97.94;99397.59;4955824;28;20125;-75
2021/12/28 00:45:42;;;;;;;42.95;18.38;;;;;;;5.43;97.97;99390.72;4947215;28;20043;-76
2021/12/28 00:48:08;;;;;;;110.00;55.22;;;;;;;5.37;98.04;99391.66;4956833;28;20058;-76
2021/12/28 00:50:34;;;;;;;57.17;26.42;;;;;;;5.34;97.97;99383.91;4962416;28;20387;-76
2021/12/28 00:52:59;;;;;;;43.90;20.67;;;;;;;5.32;97.78;99383.06;4957194;28;20026;-75
2021/12/28 00:55:25;;;;;;;38.78;16.60;;;;;;;5.31;97.61;99384.78;4940562;28;20049;-75
2021/12/28 00:57:54;;;;;;;46.78;20.35;;;;;;;5.27;97.98;99382.28;4964938;28;20041;-76
2021/12/28 01:00:30;;;;;;;21.70;10.88;;;;;;;5.27;97.75;99371.88;4963619;28;20109;-76
2021/12/28 01:02:57;;;;;;;52.92;22.95;;;;;;;5.25;97.93;99379.69;4964455;28;20037;-75
2021/12/28 01:05:23;;;;;;;59.95;31.35;;;;;;;5.24;97.84;99384.91;4952443;28;20034;-75
2021/12/28 01:07:49;;;;;;;62.47;33.47;;;;;;;5.27;97.84;99380.56;4968864;28;20042;-75
2021/12/28 01:10:20;;;;;;;54.20;23.27;;;;;;;5.21;97.85;99372.81;4973901;28;20030;-75
2021/12/28 01:12:49;;;;;;;59.35;27.85;;;;;;;5.19;97.72;99370.25;4968436;28;20034;-75
2021/12/28 01:15:15;;;;;;;52.70;26.55;;;;;;;5.23;98.02;99370.19;4953495;28;20035;-75
2021/12/28 01:17:41;;;;;;;37.53;15.77;;;;;;;5.19;97.94;99359.84;4975957;28;20057;-75
2021/12/28 01:20:09;;;;;;;42.95;16.10;;;;;;;5.21;97.95;99365.03;4971068;28;20073;-75
2021/12/28 01:22:34;;;;;;;37.53;18.73;;;;;;;5.23;97.82;99360.69;4960555;28;20030;-75
2021/12/28 01:25:00;;;;;;;76.20;36.80;;;;;;;5.26;98.05;99363.25;4967453;28;20030;-75
2021/12/28 01:27:25;;;;;;;43.38;20.25;;;;;;;5.24;97.65;99364.13;4958748;28;20034;-75
2021/12/28 01:29:52;;;;;;;30.25;16.70;;;;;;;5.22;97.99;99363.31;4960211;28;20372;-75
2021/12/28 01:32:17;;;;;;;35.53;17.10;;;;;;;5.25;98.03;99374.50;4953839;28;20509;-75
2021/12/28 01:34:44;;;;;;;38.72;15.93;;;;;;;5.24;98.20;99364.97;4972683;28;20014;-76
2021/12/28 01:37:11;;;;;;;36.78;11.55;;;;;;;5.25;98.04;99371.06;4972705;28;20097;-75
2021/12/28 01:39:37;;;;;;;41.38;19.67;;;;;;;5.24;97.84;99356.34;4952542;28;20026;-75
2021/12/28 01:42:06;;;;;;;36.85;13.15;;;;;;;5.25;97.72;99358.91;4961735;28;20136;-75
2021/12/28 01:44:32;;;;;;;36.28;18.05;;;;;;;5.25;97.56;99363.25;4967104;28;20309;-75
2021/12/28 01:46:58;;;;;;;25.02;10.57;;;;;;;5.24;97.80;99369.31;4959970;28;20045;-75
2021/12/28 01:49:24;;;;;;;54.03;19.73;;;;;;;5.23;97.64;99355.50;4955898;28;20371;-75
2021/12/28 01:51:50;;;;;;;24.73;9.52;;;;;;;5.19;97.47;99359.84;4971336;28;20144;-75
2021/12/28 01:54:15;;;;;;;36.83;10.68;;;;;;;5.19;97.06;99359.00;4966748;28;20031;-75
2021/12/28 01:56:44;;;;;;;37.65;14.90;;;;;;;5.25;97.33;99368.47;4956973;28;20542;-75
2021/12/28 01:59:13;;;;;;;41.15;18.05;;;;;;;5.23;97.39;99362.41;4965712;28;20030;-75
2021/12/28 02:01:39;;;;;;;31.05;10.00;;;;;;;5.23;97.67;99358.09;4971253;28;20038;-75
2021/12/28 02:04:26;;;;;;;31.13;8.68;;;;;;;5.20;97.62;99347.72;4957568;28;20037;-75
2021/12/28 02:06:52;;;;;;;31.98;15.60;;;;;;;5.22;97.91;99360.72;4970032;28;20446;-76
2021/12/28 02:09:18;;;;;;;29.95;13.20;;;;;;;5.17;97.32;99359.03;4943137;28;20035;-75
2021/12/28 02:11:44;;;;;;;31.15;11.45;;;;;;;5.16;97.13;99359.06;4954906;28;20124;-75
2021/12/28 02:14:10;;;;;;;29.67;11.57;;;;;;;5.20;97.06;99353.78;4940967;28;20158;-75
2021/12/28 02:16:39;;;;;;;40.78;16.98;;;;;;;5.26;97.33;99355.44;4950322;28;20513;-75
2021/12/28 02:19:07;;;;;;;37.60;10.95;;;;;;;5.22;nan;99350.31;4964747;28;20405;-75
2021/12/28 02:21:32;;;;;;;40.63;9.82;;;;;;;5.26;97.09;99347.66;4963564;28;20540;-75
2021/12/28 02:24:04;;;;;;;28.27;8.02;;;;;;;5.28;97.32;99351.06;4967465;28;20129;-75
2021/12/28 02:26:30;;;;;;;31.50;9.25;;;;;;;5.34;97.12;99343.22;4974156;28;20529;-75
2021/12/28 02:28:56;;;;;;;32.13;9.85;;;;;;;5.40;96.87;99350.03;4972738;28;20026;-75
2021/12/28 02:31:22;;;;;;;39.38;7.22;;;;;;;5.49;97.80;99346.47;4958193;28;20066;-76
2021/12/28 02:33:49;;;;;;;29.35;8.30;;;;;;;5.54;97.45;99344.66;4951436;28;20079;-75
2021/12/28 02:36:15;;;;;;;26.40;7.95;;;;;;;5.61;97.29;99328.06;4968922;28;20129;-75
2021/12/28 02:38:43;;;;;;;25.50;7.53;;;;;;;5.64;97.21;99334.97;4954830;28;20037;-75
2021/12/28 02:41:10;;;;;;;23.40;8.38;;;;;;;5.71;97.21;99329.63;4936039;28;20058;-74
2021/12/28 02:43:37;;;;;;;23.20;5.75;;;;;;;5.79;97.16;99321.75;4975176;28;20117;-75
2021/12/28 02:46:07;;;;;;;32.58;9.57;;;;;;;5.82;97.18;99319.09;4971171;28;20364;-75
2021/12/28 02:48:35;;;;;;;39.97;9.07;;;;;;;5.89;97.47;99327.66;4963562;28;20030;-75
2021/12/28 02:51:07;;;;;;;36.85;11.43;;;;;;;5.96;97.23;99320.56;4947791;28;20454;-75
2021/12/28 02:53:33;;;;;;;78.38;29.83;;;;;;;5.99;96.85;99328.34;4984678;28;20051;-75
2021/12/28 02:55:59;;;;;;;43.45;13.25;;;;;;;5.99;97.04;99316.22;4956653;28;20577;-76
2021/12/28 02:58:39;;;;;;;25.40;8.30;;;;;;;6.00;97.09;99315.31;5010556;28;20441;-75
2021/12/28 03:01:27;;;;;;;33.60;10.63;;;;;;;6.04;96.99;99308.34;4990348;28;20057;-75
2021/12/28 03:04:04;;;;;;;27.67;10.27;;;;;;;6.06;97.08;99312.63;4983763;28;20676;-75
2021/12/28 03:06:31;;;;;;;43.08;15.40;;;;;;;6.07;96.55;99310.88;4991753;28;20092;-76
2021/12/28 03:08:59;;;;;;;36.97;11.73;;;;;;;6.07;96.65;99311.72;4968864;28;20038;-75
2021/12/28 03:11:27;;;;;;;58.50;17.90;;;;;;;6.09;96.27;99313.44;4989680;28;20115;-75
2021/12/28 03:13:59;;;;;;;53.03;16.73;;;;;;;6.11;96.60;99309.94;4993467;28;20026;-75
2021/12/28 03:16:26;;;;;;;54.20;11.75;;;;;;;6.13;96.40;99308.16;4992790;28;20026;-76
2021/12/28 03:18:52;;;;;;;29.42;8.07;;;;;;;6.14;96.25;99309.88;4977273;28;20565;-75
2021/12/28 03:21:21;;;;;;;22.70;7.63;;;;;;;6.14;95.72;99307.28;4991491;28;20026;-75
2021/12/28 03:23:47;;;;;;;32.53;8.77;;;;;;;6.16;95.81;99307.25;4986811;28;20026;-76
2021/12/28 03:26:14;;;;;;;26.50;7.47;;;;;;;6.13;96.18;99292.56;4968674;28;20397;-75
2021/12/28 03:28:41;;;;;;;35.35;9.00;;;;;;;6.16;95.64;99289.94;4968768;28;20026;-76
2021/12/28 03:31:13;;;;;;;31.73;9.63;;;;;;;6.18;96.15;99289.91;4970994;28;20042;-76
2021/12/28 03:33:41;;;;;;;27.52;10.57;;;;;;;6.21;96.06;99289.84;4991127;28;20079;-75
2021/12/28 03:36:08;;;;;;;31.80;13.50;;;;;;;6.18;95.75;99280.34;4977940;28;20601;-75
2021/12/28 03:38:36;;;;;;;63.22;21.35;;;;;;;6.15;95.85;99277.78;4992337;28;20033;-75
2021/12/28 03:41:07;;;;;;;36.22;11.23;;;;;;;6.14;95.80;99278.69;4989754;28;20033;-76
2021/12/28 03:43:33;;;;;;;40.22;10.65;;;;;;;6.10;95.05;99266.59;4967011;28;20132;-76
2021/12/28 03:45:58;;;;;;;22.17;7.40;;;;;;;6.09;95.80;99270.09;4989444;28;20168;-75
2021/12/28 03:48:24;;;;;;;27.90;7.47;;;;;;;6.07;95.53;99271.88;4958010;28;20064;-76
2021/12/28 03:50:49;;;;;;;28.80;7.25;;;;;;;6.03;94.96;99270.22;4955188;28;20073;-76
2021/12/28 03:53:15;;;;;;;20.80;6.93;;;;;;;6.00;95.40;99259.88;4988794;28;20129;-76
2021/12/28 03:55:40;;;;;;;25.95;6.93;;;;;;;6.01;95.50;99248.59;4969941;28;20046;-75
2021/12/28 03:58:06;;;;;;;33.50;8.70;;;;;;;5.99;95.96;99251.22;4955566;28;20111;-75
2021/12/28 04:00:36;;;;;;;33.15;7.63;;;;;;;6.05;95.79;99251.09;4986415;28;20045;-75
2021/12/28 04:03:01;;;;;;;39.70;6.40;;;;;;;6.10;95.71;99240.59;5003321;28;20104;-75
2021/12/28 04:05:27;;;;;;;37.45;7.40;;;;;;;6.18;96.01;99245.69;4971627;28;20128;-71
2021/12/28 04:07:52;;;;;;;25.08;7.53;;;;;;;6.22;96.18;99248.19;4987148;28;20087;-72
2021/12/28 04:10:19;;;;;;;24.88;6.82;;;;;;;6.28;96.50;99242.00;4987022;28;20160;-71
2021/12/28 04:12:45;;;;;;;28.13;5.78;;;;;;;6.37;96.51;99244.41;4970574;28;20050;-72
2021/12/28 04:15:14;;;;;;;26.52;8.00;;;;;;;6.47;96.89;99239.03;4974366;28;20068;-70
2021/12/28 04:17:40;;;;;;;25.52;7.45;;;;;;;6.52;95.85;99243.25;4986348;28;20104;-71
2021/12/28 04:20:15;;;;;;;26.45;7.57;;;;;;;6.57;95.85;99250.97;4971002;28;20041;-71
2021/12/28 04:22:42;;;;;;;24.63;6.10;;;;;;;6.59;96.04;99244.84;4988112;28;20034;-71
2021/12/28 04:25:09;;;;;;;30.83;7.82;;;;;;;6.64;95.58;99238.66;4986500;28;20072;-71
2021/12/28 04:27:34;;;;;;;22.85;5.60;;;;;;;6.66;95.67;99240.34;4986311;28;20037;-71
2021/12/28 04:30:00;;;;;;;31.85;7.05;;;;;;;6.76;95.27;99246.22;4970072;28;20042;-71
2021/12/28 04:32:25;;;;;;;27.23;5.93;;;;;;;6.84;95.27;99246.91;4987385;28;20068;-71
2021/12/28 04:34:51;;;;;;;22.85;6.15;;;;;;;6.85;95.65;99230.41;4954391;28;20069;-71
2021/12/28 04:37:16;;;;;;;26.33;7.47;;;;;;;6.87;94.77;99232.97;4987055;28;20030;-71
2021/12/28 04:39:47;;;;;;;25.10;6.85;;;;;;;6.92;95.25;99226.78;4986935;28;20430;-71
2021/12/28 04:42:12;;;;;;;26.52;6.38;;;;;;;6.99;94.92;99237.03;4969185;28;20076;-71
2021/12/28 04:44:37;;;;;;;27.45;6.57;;;;;;;7.00;94.31;99239.59;4971281;28;20038;-72
2021/12/28 04:47:03;;;;;;;17.63;6.15;;;;;;;7.05;94.69;99244.69;4968896;28;20041;-72
2021/12/28 04:49:29;;;;;;;23.88;6.88;;;;;;;7.12;94.63;99241.06;4969154;28;20061;-72
2021/12/28 04:51:56;;;;;;;19.90;5.75;;;;;;;7.16;94.15;99245.31;4986941;28;20042;-73
2021/12/28 04:54:22;;;;;;;17.02;6.22;;;;;;;7.21;94.00;99243.47;4968882;28;20132;-72
2021/12/28 04:56:48;;;;;;;26.08;7.30;;;;;;;7.24;93.64;99248.59;4970819;28;20137;-72
2021/12/28 04:59:15;;;;;;;21.35;7.13;;;;;;;7.26;93.95;99249.41;4985895;28;20124;-73
2021/12/28 05:01:41;;;;;;;29.85;7.30;;;;;;;7.31;93.32;99249.28;4990988;28;20458;-73
2021/12/28 05:04:07;;;;;;;22.60;6.40;;;;;;;7.34;93.43;99250.97;4965700;28;20125;-74
2021/12/28 05:06:35;;;;;;;18.58;5.78;;;;;;;7.38;92.99;99252.63;4975404;28;20030;-73
2021/12/28 05:09:02;;;;;;;19.52;6.20;;;;;;;7.41;92.76;99253.41;4984512;28;20087;-71
2021/12/28 05:11:30;;;;;;;21.00;4.90;;;;;;;7.41;93.25;99236.91;4981585;28;20450;-73
2021/12/28 05:13:55;;;;;;;26.35;5.53;;;;;;;7.43;92.99;99233.38;4973170;28;20034;-73
2021/12/28 05:16:22;;;;;;;35.38;5.68;;;;;;;7.44;93.00;99239.44;4976444;28;20612;-72
2021/12/28 05:18:47;;;;;;;22.75;6.00;;;;;;;7.38;94.08;99234.38;4969948;28;20026;-71
2021/12/28 05:21:13;;;;;;;20.08;4.72;;;;;;;7.36;94.67;99231.81;4955151;28;20544;-72
2021/12/28 05:23:38;;;;;;;20.48;5.85;;;;;;;7.36;94.27;99231.81;4967511;28;20448;-71
2021/12/28 05:26:04;;;;;;;25.30;5.13;;;;;;;7.34;94.34;99222.31;4984570;28;20410;-72
2021/12/28 05:28:29;;;;;;;17.45;4.88;;;;;;;7.35;93.14;99224.88;4973965;28;20057;-71
2021/12/28 05:30:55;;;;;;;27.95;5.50;;;;;;;7.37;93.59;99222.22;4975194;28;20026;-72
2021/12/28 05:33:21;;;;;;;26.95;5.63;;;;;;;7.37;93.55;99223.09;4988864;28;20493;-73
2021/12/28 05:35:47;;;;;;;24.58;5.32;;;;;;;7.38;93.56;99226.56;4987398;28;20026;-76
2021/12/28 05:38:12;;;;;;;24.10;5.40;;;;;;;7.36;93.54;99220.53;4986823;28;20048;-76
2021/12/28 05:40:39;;;;;;;20.25;4.65;;;;;;;7.38;93.17;99213.53;4973954;28;20034;-76
2021/12/28 05:43:05;;;;;;;15.80;4.78;;;;;;;7.39;92.79;99210.88;4989658;28;20033;-76
2021/12/28 05:45:31;;;;;;;16.55;4.45;;;;;;;7.39;93.55;99207.44;4970558;28;20875;-75
2021/12/28 05:47:57;;;;;;;21.50;4.53;;;;;;;7.39;93.68;99199.63;4982700;28;20104;-78
2021/12/28 05:50:22;;;;;;;27.38;5.93;;;;;;;7.40;93.69;99211.75;4987051;28;20040;-76
2021/12/28 05:52:47;;;;;;;21.10;4.22;;;;;;;7.43;93.34;99198.66;4990739;28;20033;-75
2021/12/28 05:55:13;;;;;;;14.07;4.10;;;;;;;7.44;93.19;99197.72;4960309;28;20486;-77
2021/12/28 05:57:39;;;;;;;15.80;4.38;;;;;;;7.44;93.44;99197.72;4993707;28;20156;-74
2021/12/28 06:00:10;;;;;;;14.57;3.30;;;;;;;7.45;92.89;99194.22;4992161;28;20112;-76
2021/12/28 06:02:37;;;;;;;17.73;3.67;;;;;;;7.45;92.95;99200.28;4984921;28;20027;-77
2021/12/28 06:05:08;;;;;;;22.48;4.88;;;;;;;7.46;92.89;99199.41;5009078;28;20478;-77
2021/12/28 06:07:34;;;;;;;21.37;5.30;;;;;;;7.47;92.83;99197.69;4979464;28;20069;-78
2021/12/28 06:10:00;;;;;;;14.82;3.75;;;;;;;7.48;92.92;99194.16;4968951;28;20654;-77
2021/12/28 06:12:26;;;;;;;14.27;4.03;;;;;;;7.46;92.72;99190.75;4991097;28;20083;-76
2021/12/28 06:14:52;;;;;;;17.15;4.32;;;;;;;7.46;92.78;99188.97;4972144;28;20030;-77
2021/12/28 06:17:18;;;;;;;24.77;3.55;;;;;;;7.51;93.14;99182.81;4978005;28;20074;-75
2021/12/28 06:19:44;;;;;;;12.65;3.42;;;;;;;7.53;93.40;99179.25;4962300;28;20092;-77
2021/12/28 06:22:10;;;;;;;16.20;4.00;;;;;;;7.56;92.31;99192.22;4948240;28;20046;-76
2021/12/28 06:24:35;;;;;;;13.48;3.63;;;;;;;7.57;93.12;99183.50;4953601;28;20129;-77
2021/12/28 06:27:01;;;;;;;17.20;3.83;;;;;;;7.61;93.62;99185.16;4978941;28;20030;-75
2021/12/28 06:29:27;;;;;;;10.65;3.90;;;;;;;7.56;93.74;99181.78;4995919;28;20041;-78
2021/12/28 06:31:53;;;;;;;10.65;2.65;;;;;;;7.57;93.72;99182.63;4962010;28;20040;-77
2021/12/28 06:34:22;;;;;;;12.73;2.95;;;;;;;7.54;94.09;99183.59;4989009;28;20076;-75
2021/12/28 06:36:48;;;;;;;12.63;3.00;;;;;;;7.57;93.88;99167.00;4973474;28;20030;-75
2021/12/28 06:39:13;;;;;;;13.27;3.80;;;;;;;7.57;94.48;99173.09;4987334;28;20647;-76
2021/12/28 06:41:40;;;;;;;6.60;2.70;;;;;;;7.57;94.56;99167.88;4972962;28;20132;-77
2021/12/28 06:44:09;;;;;;;7.28;3.33;;;;;;;7.59;94.24;99165.22;4971783;28;20030;-76
2021/12/28 06:46:44;;;;;;;8.52;2.28;;;;;;;7.59;93.80;99160.84;4968600;28;20482;-76
2021/12/28 06:49:10;;;;;;;13.02;2.88;;;;;;;7.59;93.22;99160.00;4962506;28;20040;-77
2021/12/28 06:51:35;;;;;;;17.98;3.45;;;;;;;7.58;93.28;99148.69;4974387;28;20064;-77
2021/12/28 06:54:04;;;;;;;9.63;3.20;;;;;;;7.58;93.08;99142.63;4975517;28;20058;-77
2021/12/28 06:56:33;;;;;;;12.05;3.83;;;;;;;7.58;93.71;99148.69;4978593;28;20517;-77
2021/12/28 06:58:59;;;;;;;7.30;2.83;;;;;;;7.60;92.92;99157.34;4987199;28;20036;-77
2021/12/28 07:01:24;;;;;;;10.85;2.63;;;;;;;7.61;93.10;99174.72;4960754;28;20148;-78
2021/12/28 07:03:50;;;;;;;5.47;2.72;;;;;;;7.66;92.60;99173.72;4986569;28;20112;-75
2021/12/28 07:06:16;;;;;;;7.43;3.40;;;;;;;7.68;92.69;99156.28;5002012;28;20029;-77
2021/12/28 07:08:43;;;;;;;9.07;2.45;;;;;;;7.67;92.79;99152.84;4984844;28;20037;-77
2021/12/28 07:11:08;;;;;;;13.00;4.53;;;;;;;7.67;92.21;99157.19;4956441;28;20030;-77
2021/12/28 07:13:34;;;;;;;15.52;5.03;;;;;;;7.65;92.01;99152.00;4971162;28;20034;-78
2021/12/28 07:16:00;;;;;;;13.25;5.15;;;;;;;7.63;91.62;99146.84;4990095;28;20033;-77
2021/12/28 07:18:25;;;;;;;8.43;4.88;;;;;;;7.65;92.11;99145.94;4977828;28;20041;-77
2021/12/28 07:20:51;;;;;;;13.40;4.80;;;;;;;7.64;91.96;99147.69;4977168;28;20450;-77
2021/12/28 07:23:16;;;;;;;17.70;5.80;;;;;;;7.65;92.04;99149.41;4977004;28;20037;-77
2021/12/28 07:25:42;;;;;;;17.73;7.10;;;;;;;7.65;91.60;99153.78;4982857;28;20029;-76
2021/12/28 07:28:08;;;;;;;22.73;7.57;;;;;;;7.63;91.88;99152.06;4965693;28;20460;-77
2021/12/28 07:30:33;;;;;;;12.98;3.83;;;;;;;7.66;92.02;99158.06;4989406;28;20030;-78
2021/12/28 07:32:59;;;;;;;13.38;5.22;;;;;;;7.66;92.05;99165.88;4997288;28;20486;-75
2021/12/28 07:35:24;;;;;;;18.25;8.65;;;;;;;7.66;91.40;99158.06;4979194;28;20052;-78
2021/12/28 07:37:50;;;;;;;13.52;3.38;;;;;;;7.68;91.62;99158.91;4975309;28;20375;-77
2021/12/28 07:40:15;;;;;;;11.23;3.30;;;;;;;7.68;91.49;99156.28;4968209;28;20029;-76
2021/12/28 07:42:41;;;;;;;12.25;4.25;;;;;;;7.67;91.86;99151.97;4969690;28;20036;-76
2021/12/28 07:45:09;;;;;;;6.78;3.15;;;;;;;7.65;92.35;99148.56;4975654;28;20042;-74
2021/12/28 07:47:36;;;;;;;11.60;3.72;;;;;;;7.61;91.66;99132.13;4978780;28;20034;-76
2021/12/28 07:50:02;;;;;;;7.25;3.05;;;;;;;7.59;92.26;99129.56;4975435;28;20081;-77
2021/12/28 07:52:29;;;;;;;14.32;3.80;;;;;;;7.60;92.91;99146.94;4991162;28;20030;-77
2021/12/28 07:54:54;;;;;;;11.32;3.08;;;;;;;7.62;92.87;99144.28;4986629;28;20030;-77
2021/12/28 07:57:22;;;;;;;11.40;2.28;;;;;;;7.61;92.74;99146.03;4962039;28;20057;-78
2021/12/28 07:59:47;;;;;;;7.65;2.33;;;;;;;7.62;92.79;99139.06;4977826;28;20156;-77
2021/12/28 08:02:13;;;;;;;9.75;3.17;;;;;;;7.63;92.77;99146.00;4957568;28;20497;-77
2021/12/28 08:04:38;;;;;;;7.40;2.63;;;;;;;7.60;93.57;99139.09;4973337;28;20030;-77
2021/12/28 08:07:06;;;;;;;10.80;3.33;;;;;;;7.58;93.77;99143.47;4962573;28;20076;-78
2021/12/28 08:09:32;;;;;;;9.88;2.35;;;;;;;7.59;93.86;99144.38;4973878;28;20030;-75
2021/12/28 08:11:57;;;;;;;7.78;2.95;;;;;;;7.59;94.40;99145.22;4993457;28;20072;-77
2021/12/28 08:14:23;;;;;;;12.10;3.55;;;;;;;7.53;95.17;99139.28;4989354;28;20096;-77
2021/12/28 08:16:48;;;;;;;5.45;2.45;;;;;;;7.51;95.75;99136.72;4991009;28;20033;-78
2021/12/28 08:19:15;;;;;;;10.23;3.13;;;;;;;7.50;95.70;99140.25;4958697;28;20091;-77
2021/12/28 08:21:40;;;;;;;7.10;2.42;;;;;;;7.51;96.28;99141.09;4960821;28;20030;-78
2021/12/28 08:24:06;;;;;;;7.97;2.83;;;;;;;7.50;96.74;99136.78;4968240;28;20034;-77
2021/12/28 08:26:32;;;;;;;11.25;4.53;;;;;;;7.50;96.92;99140.25;4961415;28;20029;-76
2021/12/28 08:28:58;;;;;;;70.88;36.00;;;;;;;7.48;96.92;99136.81;4972729;28;20038;-77
2021/12/28 08:31:24;;;;;;;526.58;348.98;;;;;;;7.50;96.86;99134.16;4989897;28;20033;-76
2021/12/28 08:33:49;;;;;;;101.80;63.47;;;;;;;7.50;97.06;99144.59;4986641;28;20045;-78
2021/12/28 08:36:15;;;;;;;64.30;37.60;;;;;;;7.49;97.92;99133.31;4974348;28;20133;-77
2021/12/28 08:38:43;;;;;;;103.90;63.08;;;;;;;7.50;98.32;99126.34;4981808;28;20121;-75
2021/12/28 08:41:09;;;;;;;16.02;4.40;;;;;;;7.52;98.56;99128.03;4966782;28;20041;-75
2021/12/28 08:43:38;;;;;;;27.25;18.42;;;;;;;7.53;99.17;99119.31;4991980;28;20064;-76
2021/12/28 08:46:04;;;;;;;24.20;16.88;;;;;;;7.54;99.04;99115.81;4977617;28;20043;-76
2021/12/28 08:48:30;;;;;;;6.97;3.33;;;;;;;7.58;99.45;99121.78;4973371;28;20030;-76
2021/12/28 08:50:56;;;;;;;16.60;14.90;;;;;;;7.59;99.74;99118.28;4980459;28;20463;-76
2021/12/28 08:53:23;;;;;;;11.63;5.07;;;;;;;7.61;99.36;99117.38;4967676;28;20089;-70
2021/12/28 08:55:49;;;;;;;10.10;4.25;;;;;;;7.65;99.95;99125.09;4984367;28;20038;-72
2021/12/28 08:58:15;;;;;;;6.82;3.40;;;;;;;7.67;99.41;99125.91;4940045;28;20043;-71
2021/12/28 09:00:41;;;;;;;8.18;3.30;;;;;;;7.71;100.00;99111.88;4972452;28;20375;-72
2021/12/28 09:03:07;;;;;;;13.60;7.78;;;;;;;7.75;100.00;99118.72;4973220;28;20030;-73
2021/12/28 09:05:33;;;;;;;8.52;4.20;;;;;;;7.76;100.00;99115.22;4968210;28;20050;-72
2021/12/28 09:08:01;;;;;;;6.95;3.92;;;;;;;7.78;100.00;99113.41;4961406;28;20435;-72
2021/12/28 09:10:27;;;;;;;5.40;3.85;;;;;;;7.80;100.00;99111.63;4953524;28;20397;-72
2021/12/28 09:12:53;;;;;;;8.13;5.45;;;;;;;7.81;100.00;99108.13;4968192;28;20464;-71
2021/12/28 09:15:19;;;;;;;5.65;3.50;;;;;;;7.84;100.00;99101.97;4947601;28;20043;-72
2021/12/28 09:17:44;;;;;;;9.30;4.85;;;;;;;7.86;100.00;99101.03;4961624;28;20039;-72
2021/12/28 09:20:14;;;;;;;5.88;3.80;;;;;;;7.88;100.00;99104.44;4957001;28;20034;-70
2021/12/28 09:22:40;;;;;;;6.13;4.25;;;;;;;7.87;100.00;99092.28;4980596;28;20056;-71
2021/12/28 09:25:06;;;;;;;6.88;4.05;;;;;;;7.91;100.00;99109.56;4966148;28;20415;-71
2021/12/28 09:27:31;;;;;;;6.35;3.67;;;;;;;7.94;100.00;99109.50;4976843;28;20042;-71
2021/12/28 09:29:57;;;;;;;7.50;4.32;;;;;;;7.96;100.00;99099.84;4968821;28;20049;-72
2021/12/28 09:32:23;;;;;;;9.05;4.65;;;;;;;8.00;100.00;99100.59;4952483;28;20046;-74
2021/12/28 09:34:50;;;;;;;5.88;4.68;;;;;;;8.03;100.00;99095.31;4960905;28;20018;-74
2021/12/28 09:37:16;;;;;;;5.75;4.57;;;;;;;8.05;100.00;99085.69;4977353;28;20038;-72
2021/12/28 09:39:43;;;;;;;10.82;4.07;;;;;;;8.09;100.00;99091.69;4953838;28;20037;-71
2021/12/28 09:42:09;;;;;;;5.55;3.58;;;;;;;8.12;100.00;99078.53;4932658;28;20045;-72
2021/12/28 09:44:35;;;;;;;6.78;3.85;;;;;;;8.14;100.00;99077.56;4975968;28;20490;-71
2021/12/28 09:47:03;;;;;;;4.15;3.78;;;;;;;8.17;100.00;99079.25;4970899;28;20040;-73
2021/12/28 09:49:29;;;;;;;4.68;3.15;;;;;;;8.20;100.00;99083.53;4968367;28;20058;-72
2021/12/28 09:51:57;;;;;;;4.47;3.60;;;;;;;8.21;100.00;99062.59;4973976;28;20071;-73
2021/12/28 09:54:27;;;;;;;5.18;3.63;;;;;;;8.24;100.00;99075.53;4965642;28;20113;-72
2021/12/28 09:56:55;;;;;;;4.20;3.67;;;;;;;8.26;100.00;99065.06;4969711;28;20087;-72
2021/12/28 09:59:22;;;;;;;5.15;3.63;;;;;;;8.26;100.00;99068.53;4968600;28;20030;-74
2021/12/28 10:01:48;;;;;;;6.72;4.38;;;;;;;8.27;100.00;99067.63;4974297;28;20037;-73
2021/12/28 10:04:13;;;;;;;8.45;4.05;;;;;;;8.30;100.00;99064.06;4958722;28;20036;-72
2021/12/28 10:06:39;;;;;;;5.78;4.68;;;;;;;8.37;100.00;99064.75;4975533;28;20038;-74
2021/12/28 10:09:06;;;;;;;4.43;3.83;;;;;;;8.39;100.00;99062.94;4959135;28;20584;-71
2021/12/28 10:11:37;;;;;;;15.63;9.68;;;;;;;8.44;99.77;99053.22;4975714;28;20045;-71
2021/12/28 10:14:17;;;;;;;7.72;6.20;;;;;;;8.49;99.42;99048.72;4976541;28;20795;-71
2021/12/28 10:16:51;;;;;;;9.88;6.95;;;;;;;8.54;98.59;99041.59;4966269;28;20062;-74
2021/12/28 10:19:33;;;;;;;8.75;3.92;;;;;;;8.56;98.58;99037.19;4967554;28;20376;-72
2021/12/28 10:22:20;;;;;;;6.53;3.88;;;;;;;8.59;98.91;99042.31;4964825;28;20058;-70
2021/12/28 10:24:46;;;;;;;7.45;6.60;;;;;;;8.57;98.39;99032.81;4969262;28;20034;-73
2021/12/28 10:27:15;;;;;;;6.15;3.85;;;;;;;8.56;98.57;99031.09;4967957;28;20031;-73
2021/12/28 10:29:41;;;;;;;7.13;4.68;;;;;;;8.56;98.22;99021.53;4973795;28;20038;-71
2021/12/28 10:32:36;;;;;;;12.80;9.38;;;;;;;8.58;98.53;99019.72;4956245;28;20034;-72
2021/12/28 10:35:07;;;;;;;8.05;5.57;;;;;;;8.61;98.11;99005.72;4938476;28;20086;-73
2021/12/28 10:37:36;;;;;;;4.38;3.70;;;;;;;8.63;97.57;99004.75;4971809;28;20034;-73
2021/12/28 10:40:07;;;;;;;5.78;3.83;;;;;;;8.70;97.12;99004.53;4972400;28;20034;-72
2021/12/28 10:42:35;;;;;;;;;;;;;;;8.77;96.88;99003.44;4970497;28;20066;-72
2021/12/28 10:45:01;;;;;;;4.40;3.25;;;;;;;8.88;95.39;99001.31;4974543;28;20397;-72
2021/12/28 10:47:27;;;;;;;4.38;3.15;;;;;;;8.99;95.24;98983.50;4971067;28;20034;-74
2021/12/28 10:49:52;;;;;;;5.30;3.00;;;;;;;9.07;94.73;98983.22;4985091;28;20482;-73
2021/12/28 10:52:32;;;;;;;3.35;3.05;;;;;;;9.09;94.01;98983.16;4972041;28;20026;-72
2021/12/28 10:55:22;;;;;;;2.30;2.05;;;;;;;9.10;92.85;98990.13;4958547;28;20100;-73
2021/12/28 10:57:49;;;;;;;6.95;2.97;;;;;;;9.10;92.50;98987.50;4974014;28;20038;-73
2021/12/28 11:00:25;;;;;;;5.07;2.47;;;;;;;9.12;91.87;98976.09;4959433;28;20026;-71
2021/12/28 11:03:11;;;;;;;2.90;2.70;;;;;;;9.11;92.17;98977.00;4993535;28;20060;-72
2021/12/28 11:05:37;;;;;;;2.83;2.10;;;;;;;9.12;92.58;98977.84;4971193;28;20049;-71
2021/12/28 11:08:07;;;;;;;3.05;2.70;;;;;;;9.07;93.09;98975.38;4937606;28;20105;-72
2021/12/28 11:10:32;;;;;;;;;;;;;;;9.02;93.46;98972.06;4969418;28;20030;-71
2021/12/28 11:12:58;;;;;;;2.88;2.67;;;;;;;8.93;94.93;98967.19;4970799;28;19917;-74
2021/12/28 11:15:27;;;;;;;2.95;2.70;;;;;;;8.86;96.09;98957.84;4937795;28;20091;-72
2021/12/28 11:17:53;;;;;;;2.88;2.67;;;;;;;8.81;96.47;98955.41;4966859;28;20466;-71
2021/12/28 11:20:31;;;;;;;3.45;2.40;;;;;;;8.76;96.79;98946.88;4955780;28;20454;-71
2021/12/28 11:23:33;;;;;;;3.33;2.78;;;;;;;8.75;97.11;98946.03;4972140;28;20064;-76
2021/12/28 11:26:11;;;;;;;2.75;2.55;;;;;;;8.73;97.58;98941.75;4888932;29;20485;-76
2021/12/28 11:28:38;;;;;;;2.45;2.30;;;;;;;8.72;97.75;98937.44;4959350;28;20172;-74
2021/12/28 11:31:08;;;;;;;3.10;2.75;;;;;;;8.71;98.16;98933.16;4974125;28;20045;-75
2021/12/28 11:34:11;;;;;;;8.82;2.63;;;;;;;8.71;98.24;98936.59;4968319;28;20038;-76
2021/12/28 11:36:40;;;;;;;2.90;2.60;;;;;;;8.70;98.33;98926.22;4967232;28;20106;-75